createdAt,value
2018-05-09T00:00:49.970Z,2.30
2018-05-09T00:01:49.838Z,3.00
2018-05-09T00:02:49.822Z,2.20
2018-05-09T00:03:49.802Z,2.40
2018-05-09T00:04:49.799Z,3.00
2018-05-09T00:05:49.947Z,2.20
2018-05-09T00:06:49.740Z,2.20
2018-05-09T00:07:49.742Z,2.60
2018-05-09T00:08:49.688Z,2.60
2018-05-09T00:09:49.674Z,2.40
2018-05-09T00:10:50.235Z,3.10
2018-05-09T00:11:49.626Z,3.60
2018-05-09T00:12:49.570Z,2.80
2018-05-09T00:13:49.540Z,3.10
2018-05-09T00:14:49.613Z,3.30
2018-05-09T00:15:49.620Z,3.60
2018-05-09T00:16:49.489Z,4.40
2018-05-09T00:17:49.973Z,2.80
2018-05-09T00:18:49.446Z,3.10
2018-05-09T00:19:49.437Z,2.70
2018-05-09T00:20:49.414Z,3.10
2018-05-09T00:21:49.439Z,3.40
2018-05-09T00:22:49.345Z,3.40
2018-05-09T00:23:49.359Z,2.60
2018-05-09T00:24:49.283Z,4.20
2018-05-09T00:25:49.255Z,2.20
2018-05-09T00:26:49.341Z,2.90
2018-05-09T00:27:49.220Z,2.50
2018-05-09T00:28:49.188Z,2.50
2018-05-09T00:29:49.162Z,2.80
2018-05-09T00:30:49.159Z,2.70
2018-05-09T00:31:49.171Z,3.10
2018-05-09T00:32:49.204Z,3.20
2018-05-09T00:33:49.057Z,2.20
2018-05-09T00:34:49.065Z,3.50
2018-05-09T00:35:49.032Z,2.80
2018-05-09T00:36:49.011Z,2.50
2018-05-09T00:37:49.078Z,3.20
2018-05-09T00:38:48.945Z,2.30
2018-05-09T00:39:48.925Z,2.10
2018-05-09T00:40:48.924Z,2.00
2018-05-09T00:41:48.884Z,3.10
2018-05-09T00:42:48.946Z,3.00
2018-05-09T00:43:48.825Z,2.50
2018-05-09T00:44:48.806Z,2.50
2018-05-09T00:45:48.777Z,2.20
2018-05-09T00:46:49.277Z,2.60
2018-05-09T00:47:48.820Z,2.70
2018-05-09T00:48:48.716Z,2.80
2018-05-09T00:49:48.686Z,3.20
2018-05-09T00:50:48.659Z,2.50
2018-05-09T00:51:48.622Z,2.60
2018-05-09T00:52:49.256Z,3.10
2018-05-09T00:53:48.575Z,3.60
2018-05-09T00:54:49.085Z,1.80
2018-05-09T00:55:48.523Z,2.70
2018-05-09T00:56:48.493Z,3.20
2018-05-09T00:57:48.473Z,3.00
2018-05-09T00:58:48.571Z,2.60
2018-05-09T00:59:48.509Z,2.70
2018-05-09T01:00:48.986Z,2.40
2018-05-09T01:01:48.930Z,3.60
2018-05-09T01:02:48.361Z,3.00
2018-05-09T01:03:48.834Z,2.80
2018-05-09T01:04:48.452Z,2.60
2018-05-09T01:05:48.277Z,2.70
2018-05-09T01:06:48.847Z,3.20
2018-05-09T01:07:48.252Z,2.90
2018-05-09T01:08:48.759Z,2.70
2018-05-09T01:09:48.755Z,2.50
2018-05-09T01:10:48.302Z,2.50
2018-05-09T01:11:48.655Z,2.80
2018-05-09T01:12:48.129Z,3.80
2018-05-09T01:13:48.090Z,3.70
2018-05-09T01:14:48.076Z,2.60
2018-05-09T01:15:48.655Z,2.90
2018-05-09T01:16:48.612Z,2.50
2018-05-09T01:17:47.979Z,3.00
2018-05-09T01:18:47.948Z,3.50
2018-05-09T01:19:47.931Z,3.00
2018-05-09T01:20:48.023Z,3.10
2018-05-09T01:21:47.907Z,2.80
2018-05-09T01:22:48.412Z,3.20
2018-05-09T01:23:48.381Z,2.40
2018-05-09T01:24:47.801Z,2.20
2018-05-09T01:25:48.103Z,3.60
2018-05-09T01:26:47.828Z,3.30
2018-05-09T01:27:47.738Z,3.60
2018-05-09T01:28:47.725Z,3.70
2018-05-09T01:29:47.696Z,3.10
2018-05-09T01:30:48.298Z,3.30
2018-05-09T01:31:47.628Z,3.80
2018-05-09T01:32:47.598Z,3.10
2018-05-09T01:33:47.577Z,3.60
2018-05-09T01:34:47.560Z,4.90
2018-05-09T01:35:47.618Z,3.50
2018-05-09T01:36:47.494Z,3.20
2018-05-09T01:37:48.002Z,3.10
2018-05-09T01:38:47.482Z,4.50
2018-05-09T01:39:47.433Z,4.10
2018-05-09T01:40:47.404Z,3.80
2018-05-09T01:41:47.496Z,4.00
2018-05-09T01:42:47.341Z,4.00
2018-05-09T01:43:47.346Z,4.30
2018-05-09T01:44:47.803Z,4.30
2018-05-09T01:45:47.805Z,3.90
2018-05-09T01:46:47.303Z,4.40
2018-05-09T01:47:47.323Z,5.30
2018-05-09T01:48:47.706Z,3.70
2018-05-09T01:49:47.166Z,3.60
2018-05-09T01:50:47.669Z,3.70
2018-05-09T01:51:47.115Z,4.30
2018-05-09T01:52:47.193Z,3.60
2018-05-09T01:53:48.021Z,3.40
2018-05-09T01:54:47.599Z,2.80
2018-05-09T01:55:47.025Z,3.80
2018-05-09T01:56:46.999Z,3.70
2018-05-09T01:57:47.956Z,2.80
2018-05-09T01:58:47.472Z,3.30
2018-05-09T01:59:46.927Z,3.40
2018-05-09T02:00:47.438Z,4.30
2018-05-09T02:01:46.888Z,2.20
2018-05-09T02:02:47.401Z,4.50
2018-05-09T02:03:46.780Z,3.80
2018-05-09T02:04:46.786Z,3.90
2018-05-09T02:05:47.240Z,3.40
2018-05-09T02:06:46.755Z,3.00
2018-05-09T02:07:47.357Z,4.20
2018-05-09T02:08:46.665Z,3.50
2018-05-09T02:09:46.641Z,3.30
2018-05-09T02:10:46.643Z,3.00
2018-05-09T02:11:46.611Z,3.80
2018-05-09T02:12:46.696Z,3.30
2018-05-09T02:13:47.108Z,3.70
2018-05-09T02:14:46.964Z,2.70
2018-05-09T02:15:47.120Z,2.70
2018-05-09T02:16:47.015Z,3.60
2018-05-09T02:17:46.474Z,3.60
2018-05-09T02:18:46.519Z,3.70
2018-05-09T02:19:46.410Z,3.60
2018-05-09T02:20:46.365Z,3.40
2018-05-09T02:21:46.349Z,2.60
2018-05-09T02:22:46.321Z,2.80
2018-05-09T02:23:46.869Z,3.00
2018-05-09T02:24:47.102Z,2.90
2018-05-09T02:25:46.360Z,3.50
2018-05-09T02:26:46.288Z,2.30
2018-05-09T02:27:46.182Z,3.20
2018-05-09T02:28:46.173Z,3.30
2018-05-09T02:29:46.241Z,2.30
2018-05-09T02:30:46.084Z,3.00
2018-05-09T02:31:46.629Z,2.80
2018-05-09T02:32:46.051Z,2.90
2018-05-09T02:33:46.070Z,2.10
2018-05-09T02:34:46.641Z,2.70
2018-05-09T02:35:45.968Z,3.40
2018-05-09T02:36:46.512Z,3.40
2018-05-09T02:37:47.185Z,3.60
2018-05-09T02:38:46.411Z,3.40
2018-05-09T02:39:46.027Z,2.30
2018-05-09T02:40:45.886Z,2.80
2018-05-09T02:41:46.476Z,3.40
2018-05-09T02:42:45.940Z,3.60
2018-05-09T02:43:46.378Z,2.00
2018-05-09T02:44:46.496Z,3.10
2018-05-09T02:45:45.712Z,3.20
2018-05-09T02:46:46.224Z,4.00
2018-05-09T02:47:46.103Z,3.20
2018-05-09T02:48:46.151Z,3.60
2018-05-09T02:49:45.707Z,3.10
2018-05-09T02:50:45.572Z,3.50
2018-05-09T02:51:46.096Z,3.00
2018-05-09T02:52:45.519Z,3.10
2018-05-09T02:53:46.056Z,3.60
2018-05-09T02:54:45.478Z,2.60
2018-05-09T02:55:45.539Z,3.10
2018-05-09T02:56:45.429Z,3.60
2018-05-09T02:57:45.375Z,2.80
2018-05-09T02:58:45.343Z,3.30
2018-05-09T02:59:45.327Z,2.80
2018-05-09T03:00:45.310Z,2.80
2018-05-09T03:01:45.457Z,2.70
2018-05-09T03:02:45.297Z,3.30
2018-05-09T03:03:45.304Z,2.90
2018-05-09T03:04:45.212Z,2.80
2018-05-09T03:05:45.181Z,3.20
2018-05-09T03:06:45.255Z,2.40
2018-05-09T03:07:45.119Z,3.70
2018-05-09T03:08:45.099Z,2.60
2018-05-09T03:09:45.071Z,2.30
2018-05-09T03:10:45.029Z,2.00
2018-05-09T03:11:45.120Z,3.90
2018-05-09T03:12:44.984Z,2.80
2018-05-09T03:13:44.958Z,3.60
2018-05-09T03:14:44.933Z,2.60
2018-05-09T03:15:44.912Z,3.30
2018-05-09T03:16:45.492Z,2.70
2018-05-09T03:17:44.847Z,2.90
2018-05-09T03:18:44.839Z,2.20
2018-05-09T03:19:44.796Z,3.40
2018-05-09T03:20:44.780Z,3.50
2018-05-09T03:21:44.873Z,2.60
2018-05-09T03:22:44.728Z,2.30
2018-05-09T03:23:44.696Z,2.90
2018-05-09T03:24:44.693Z,3.80
2018-05-09T03:25:44.659Z,2.80
2018-05-09T03:26:44.757Z,2.40
2018-05-09T03:27:44.565Z,2.50
2018-05-09T03:28:44.552Z,2.20
2018-05-09T03:29:44.593Z,2.40
2018-05-09T03:30:44.541Z,2.70
2018-05-09T03:31:44.484Z,2.60
2018-05-09T03:32:44.671Z,3.10
2018-05-09T03:33:44.417Z,1.90
2018-05-09T03:34:44.414Z,1.70
2018-05-09T03:35:44.380Z,3.20
2018-05-09T03:36:44.354Z,2.00
2018-05-09T03:37:44.332Z,2.40
2018-05-09T03:38:44.381Z,3.30
2018-05-09T03:39:44.257Z,2.80
2018-05-09T03:40:44.236Z,2.10
2018-05-09T03:41:44.202Z,2.10
2018-05-09T03:42:44.201Z,2.60
2018-05-09T03:43:44.251Z,2.80
2018-05-09T03:44:44.150Z,2.00
2018-05-09T03:45:44.107Z,2.90
2018-05-09T03:46:44.609Z,2.10
2018-05-09T03:47:44.063Z,2.00
2018-05-09T03:48:44.128Z,3.00
2018-05-09T03:49:43.982Z,1.30
2018-05-09T03:50:43.984Z,1.70
2018-05-09T03:51:43.934Z,1.90
2018-05-09T03:52:43.926Z,2.30
2018-05-09T03:53:43.999Z,2.90
2018-05-09T03:54:43.885Z,2.30
2018-05-09T03:55:43.845Z,2.20
2018-05-09T03:56:43.867Z,2.20
2018-05-09T03:57:43.782Z,2.10
2018-05-09T03:58:43.861Z,1.90
2018-05-09T03:59:43.730Z,2.30
2018-05-09T04:00:43.700Z,1.70
2018-05-09T04:01:43.664Z,1.90
2018-05-09T04:02:43.713Z,1.40
2018-05-09T04:03:43.689Z,1.80
2018-05-09T04:04:43.719Z,2.50
2018-05-09T04:05:43.555Z,1.90
2018-05-09T04:06:43.553Z,1.90
2018-05-09T04:07:43.529Z,1.50
2018-05-09T04:08:43.494Z,1.00
2018-05-09T04:09:43.457Z,1.90
2018-05-09T04:10:43.538Z,1.20
2018-05-09T04:11:43.423Z,1.10
2018-05-09T04:12:43.404Z,1.40
2018-05-09T04:13:43.640Z,1.70
2018-05-09T04:14:43.375Z,1.50
2018-05-09T04:15:43.322Z,2.30
2018-05-09T04:16:43.390Z,1.20
2018-05-09T04:17:43.250Z,1.30
2018-05-09T04:18:43.234Z,1.20
2018-05-09T04:19:43.214Z,1.40
2018-05-09T04:20:43.198Z,1.30
2018-05-09T04:21:43.241Z,1.30
2018-05-09T04:22:43.109Z,1.70
2018-05-09T04:23:43.089Z,1.80
2018-05-09T04:24:43.063Z,1.30
2018-05-09T04:25:43.038Z,1.10
2018-05-09T04:26:43.132Z,0.80
2018-05-09T04:27:42.982Z,1.30
2018-05-09T04:28:42.973Z,1.50
2018-05-09T04:29:42.937Z,1.40
2018-05-09T04:30:42.914Z,1.60
2018-05-09T04:31:42.995Z,1.30
2018-05-09T04:32:42.870Z,1.50
2018-05-09T04:33:42.821Z,1.10
2018-05-09T04:34:42.810Z,1.50
2018-05-09T04:35:42.789Z,1.40
2018-05-09T04:36:42.852Z,1.40
2018-05-09T04:37:42.714Z,2.00
2018-05-09T04:38:42.690Z,1.90
2018-05-09T04:39:42.688Z,1.10
2018-05-09T04:40:42.667Z,1.40
2018-05-09T04:41:42.614Z,2.00
2018-05-09T04:42:42.701Z,1.30
2018-05-09T04:43:42.554Z,1.90
2018-05-09T04:44:42.540Z,1.60
2018-05-09T04:45:42.504Z,1.40
2018-05-09T04:46:42.471Z,1.30
2018-05-09T04:47:42.441Z,1.60
2018-05-09T04:48:42.529Z,1.60
2018-05-09T04:49:42.391Z,1.70
2018-05-09T04:50:42.383Z,2.00
2018-05-09T04:51:42.345Z,1.30
2018-05-09T04:52:42.320Z,2.10
2018-05-09T04:53:42.302Z,1.60
2018-05-09T04:54:42.357Z,2.00
2018-05-09T04:55:42.296Z,1.00
2018-05-09T04:56:42.202Z,1.60
2018-05-09T04:57:42.179Z,1.20
2018-05-09T04:58:42.160Z,1.10
2018-05-09T04:59:42.270Z,1.40
2018-05-09T05:00:42.087Z,1.20
2018-05-09T05:01:42.068Z,1.00
2018-05-09T05:02:42.045Z,1.30
2018-05-09T05:03:42.018Z,1.00
2018-05-09T05:04:42.095Z,1.30
2018-05-09T05:05:41.958Z,1.90
2018-05-09T05:06:41.972Z,1.80
2018-05-09T05:07:41.909Z,1.20
2018-05-09T05:08:41.893Z,1.10
2018-05-09T05:09:41.951Z,1.60
2018-05-09T05:10:41.930Z,1.00
2018-05-09T05:11:41.806Z,1.10
2018-05-09T05:12:41.781Z,1.30
2018-05-09T05:13:41.767Z,1.50
2018-05-09T05:14:41.735Z,1.40
2018-05-09T05:15:41.845Z,1.30
2018-05-09T05:16:41.680Z,1.10
2018-05-09T05:17:41.647Z,1.40
2018-05-09T05:18:41.638Z,1.70
2018-05-09T05:19:41.596Z,1.40
2018-05-09T05:20:41.678Z,1.00
2018-05-09T05:21:41.557Z,1.60
2018-05-09T05:22:41.507Z,1.20
2018-05-09T05:23:41.492Z,1.10
2018-05-09T05:24:41.469Z,2.50
2018-05-09T05:25:41.441Z,2.40
2018-05-09T05:26:41.509Z,1.90
2018-05-09T05:27:41.374Z,2.20
2018-05-09T05:28:41.351Z,1.00
2018-05-09T05:29:41.340Z,1.00
2018-05-09T05:30:41.294Z,1.40
2018-05-09T05:31:41.267Z,1.60
2018-05-09T05:32:41.378Z,1.20
2018-05-09T05:33:41.227Z,1.40
2018-05-09T05:34:41.191Z,2.70
2018-05-09T05:35:41.177Z,1.30
2018-05-09T05:36:41.139Z,1.90
2018-05-09T05:37:41.231Z,2.10
2018-05-09T05:38:41.112Z,1.40
2018-05-09T05:39:41.057Z,2.20
2018-05-09T05:40:41.037Z,1.30
2018-05-09T05:41:41.005Z,1.30
2018-05-09T05:42:41.098Z,1.20
2018-05-09T05:43:40.954Z,1.80
2018-05-09T05:44:40.934Z,1.10
2018-05-09T05:45:40.902Z,1.40
2018-05-09T05:46:40.881Z,1.80
2018-05-09T05:47:40.915Z,1.20
2018-05-09T05:48:40.917Z,2.60
2018-05-09T05:49:40.794Z,1.40
2018-05-09T05:50:40.772Z,1.20
2018-05-09T05:51:40.746Z,1.70
2018-05-09T05:52:40.710Z,1.60
2018-05-09T05:53:40.794Z,1.30
2018-05-09T05:54:40.660Z,1.80
2018-05-09T05:55:40.626Z,1.30
2018-05-09T05:56:40.622Z,2.00
2018-05-09T05:57:40.571Z,1.20
2018-05-09T05:58:40.641Z,2.20
2018-05-09T05:59:40.535Z,1.40
2018-05-09T06:00:40.505Z,1.20
2018-05-09T06:01:40.494Z,1.40
2018-05-09T06:02:40.441Z,1.30
2018-05-09T06:03:40.415Z,1.60
2018-05-09T06:04:40.488Z,1.60
2018-05-09T06:05:40.366Z,1.40
2018-05-09T06:06:40.352Z,2.40
2018-05-09T06:07:40.321Z,1.70
2018-05-09T06:08:40.291Z,2.50
2018-05-09T06:09:40.263Z,1.70
2018-05-09T06:10:40.324Z,1.90
2018-05-09T06:11:40.211Z,1.70
2018-05-09T06:12:40.201Z,1.40
2018-05-09T06:13:40.153Z,2.30
2018-05-09T06:14:40.122Z,1.50
2018-05-09T06:15:40.202Z,2.40
2018-05-09T06:16:40.090Z,2.10
2018-05-09T06:17:40.064Z,2.00
2018-05-09T06:18:40.033Z,1.80
2018-05-09T06:19:39.989Z,1.90
2018-05-09T06:20:40.006Z,1.60
2018-05-09T06:21:40.040Z,2.80
2018-05-09T06:22:39.913Z,2.10
2018-05-09T06:23:39.932Z,1.80
2018-05-09T06:24:39.865Z,0.90
2018-05-09T06:25:39.831Z,1.50
2018-05-09T06:26:39.801Z,1.80
2018-05-09T06:27:39.890Z,2.20
2018-05-09T06:28:39.765Z,1.50
2018-05-09T06:29:39.725Z,2.10
2018-05-09T06:30:39.712Z,1.20
2018-05-09T06:31:39.669Z,1.40
2018-05-09T06:32:39.746Z,1.60
2018-05-09T06:33:39.632Z,1.70
2018-05-09T06:34:39.592Z,1.40
2018-05-09T06:35:39.582Z,2.10
2018-05-09T06:36:39.530Z,2.00
2018-05-09T06:37:39.647Z,1.30
2018-05-09T06:38:39.500Z,1.60
2018-05-09T06:39:39.468Z,1.90
2018-05-09T06:40:39.440Z,1.20
2018-05-09T06:41:39.429Z,0.90
2018-05-09T06:42:39.385Z,1.70
2018-05-09T06:43:39.495Z,2.00
2018-05-09T06:44:39.333Z,1.30
2018-05-09T06:45:39.292Z,1.10
2018-05-09T06:46:39.267Z,1.20
2018-05-09T06:47:39.247Z,1.50
2018-05-09T06:48:39.340Z,2.40
2018-05-09T06:49:39.183Z,2.00
2018-05-09T06:50:39.190Z,1.20
2018-05-09T06:51:39.134Z,1.70
2018-05-09T06:52:39.115Z,1.20
2018-05-09T06:53:39.200Z,2.10
2018-05-09T06:54:39.072Z,1.80
2018-05-09T06:55:39.041Z,1.60
2018-05-09T06:56:39.006Z,1.00
2018-05-09T06:57:38.999Z,1.10
2018-05-09T06:58:38.960Z,1.30
2018-05-09T06:59:39.031Z,1.60
2018-05-09T07:00:38.896Z,2.60
2018-05-09T07:01:38.882Z,1.70
2018-05-09T07:02:38.851Z,1.10
2018-05-09T07:03:38.838Z,1.90
2018-05-09T07:04:38.909Z,1.50
2018-05-09T07:05:38.789Z,1.50
2018-05-09T07:06:38.931Z,1.30
2018-05-09T07:07:38.713Z,2.00
2018-05-09T07:08:38.694Z,1.40
2018-05-09T07:09:38.774Z,1.20
2018-05-09T07:10:38.617Z,1.60
2018-05-09T07:11:38.603Z,1.60
2018-05-09T07:12:38.643Z,1.60
2018-05-09T07:13:38.655Z,1.80
2018-05-09T07:14:38.643Z,1.50
2018-05-09T07:15:38.498Z,1.40
2018-05-09T07:16:38.487Z,1.60
2018-05-09T07:17:38.457Z,1.20
2018-05-09T07:18:38.425Z,1.80
2018-05-09T07:19:38.407Z,1.30
2018-05-09T07:20:38.480Z,1.70
2018-05-09T07:21:38.330Z,1.80
2018-05-09T07:22:38.342Z,1.60
2018-05-09T07:23:38.304Z,1.60
2018-05-09T07:24:38.264Z,1.60
2018-05-09T07:25:38.247Z,2.40
2018-05-09T07:26:38.310Z,1.60
2018-05-09T07:27:38.188Z,1.50
2018-05-09T07:28:38.152Z,1.50
2018-05-09T07:29:38.120Z,1.90
2018-05-09T07:30:38.109Z,1.90
2018-05-09T07:31:38.076Z,2.10
2018-05-09T07:32:38.154Z,1.50
2018-05-09T07:33:38.030Z,1.50
2018-05-09T07:34:37.988Z,2.30
2018-05-09T07:35:37.964Z,1.30
2018-05-09T07:36:37.937Z,2.10
2018-05-09T07:37:38.007Z,2.10
2018-05-09T07:38:37.893Z,1.20
2018-05-09T07:39:37.859Z,1.50
2018-05-09T07:40:37.860Z,1.70
2018-05-09T07:41:37.832Z,1.60
2018-05-09T07:42:37.877Z,2.20
2018-05-09T07:43:37.762Z,1.80
2018-05-09T07:44:37.735Z,1.40
2018-05-09T07:45:37.700Z,2.00
2018-05-09T07:46:37.692Z,2.20
2018-05-09T07:47:37.825Z,1.50
2018-05-09T07:48:37.627Z,1.20
2018-05-09T07:49:37.602Z,1.50
2018-05-09T07:50:37.586Z,2.00
2018-05-09T07:51:37.539Z,1.40
2018-05-09T07:52:37.635Z,1.90
2018-05-09T07:53:37.498Z,1.30
2018-05-09T07:54:37.462Z,1.70
2018-05-09T07:55:37.467Z,2.00
2018-05-09T07:56:37.407Z,1.70
2018-05-09T07:57:37.391Z,1.60
2018-05-09T07:58:37.399Z,1.60
2018-05-09T07:59:37.335Z,1.40
2018-05-09T08:00:37.324Z,1.40
2018-05-09T08:01:37.265Z,2.00
2018-05-09T08:02:37.241Z,1.60
2018-05-09T08:03:37.208Z,2.30
2018-05-09T08:04:37.328Z,1.10
2018-05-09T08:05:37.178Z,1.90
2018-05-09T08:06:37.154Z,1.50
2018-05-09T08:07:37.135Z,1.70
2018-05-09T08:08:37.083Z,1.70
2018-05-09T08:09:37.051Z,1.70
2018-05-09T08:10:37.079Z,1.70
2018-05-09T08:11:36.994Z,1.30
2018-05-09T08:12:36.976Z,1.90
2018-05-09T08:13:36.965Z,1.70
2018-05-09T08:14:36.941Z,1.80
2018-05-09T08:15:36.982Z,2.20
2018-05-09T08:16:36.870Z,1.90
2018-05-09T08:17:36.843Z,1.60
2018-05-09T08:18:36.806Z,1.50
2018-05-09T08:19:36.793Z,2.30
2018-05-09T08:20:36.856Z,1.80
2018-05-09T08:21:36.733Z,2.10
2018-05-09T08:22:36.696Z,1.50
2018-05-09T08:23:36.692Z,1.30
2018-05-09T08:24:36.665Z,1.80
2018-05-09T08:25:36.756Z,2.10
2018-05-09T08:26:36.607Z,1.90
2018-05-09T08:27:36.568Z,2.20
2018-05-09T08:28:36.539Z,2.20
2018-05-09T08:29:36.519Z,1.80
2018-05-09T08:30:36.488Z,1.70
2018-05-09T08:31:36.559Z,2.10
2018-05-09T08:32:36.435Z,2.20
2018-05-09T08:33:36.411Z,1.90
2018-05-09T08:34:36.416Z,2.10
2018-05-09T08:35:36.402Z,1.20
2018-05-09T08:36:36.373Z,2.40
2018-05-09T08:37:36.373Z,2.10
2018-05-09T08:38:36.325Z,1.60
2018-05-09T08:39:36.248Z,2.00
2018-05-09T08:40:36.229Z,2.20
2018-05-09T08:41:36.190Z,2.40
2018-05-09T08:42:36.160Z,1.70
2018-05-09T08:43:36.362Z,1.90
2018-05-09T08:44:36.121Z,2.10
2018-05-09T08:45:36.100Z,1.60
2018-05-09T08:46:36.079Z,2.10
2018-05-09T08:47:36.032Z,1.40
2018-05-09T08:48:36.102Z,1.80
2018-05-09T08:49:35.983Z,2.20
2018-05-09T08:50:35.947Z,2.00
2018-05-09T08:51:35.925Z,1.60
2018-05-09T08:52:35.910Z,1.60
2018-05-09T08:53:35.964Z,1.60
2018-05-09T08:54:35.855Z,2.20
2018-05-09T08:55:35.822Z,1.70
2018-05-09T08:56:35.818Z,1.60
2018-05-09T08:57:35.758Z,1.90
2018-05-09T08:58:35.862Z,2.30
2018-05-09T08:59:35.716Z,2.30
2018-05-09T09:00:35.701Z,1.70
2018-05-09T09:01:35.670Z,2.20
2018-05-09T09:02:35.616Z,1.30
2018-05-09T09:03:35.696Z,2.30
2018-05-09T09:04:35.592Z,1.60
2018-05-09T09:05:35.542Z,2.80
2018-05-09T09:06:35.524Z,2.30
2018-05-09T09:07:35.493Z,1.60
2018-05-09T09:08:35.566Z,2.00
2018-05-09T09:09:35.429Z,2.00
2018-05-09T09:10:35.415Z,1.70
2018-05-09T09:11:35.394Z,2.20
2018-05-09T09:12:35.377Z,1.50
2018-05-09T09:13:35.339Z,1.70
2018-05-09T09:14:35.373Z,2.20
2018-05-09T09:15:35.345Z,1.70
2018-05-09T09:16:35.256Z,1.40
2018-05-09T09:17:35.212Z,1.60
2018-05-09T09:18:35.395Z,1.60
2018-05-09T09:19:35.266Z,2.10
2018-05-09T09:20:35.156Z,1.40
2018-05-09T09:21:35.116Z,1.60
2018-05-09T09:22:35.097Z,1.70
2018-05-09T09:23:35.052Z,1.90
2018-05-09T09:24:35.128Z,1.80
2018-05-09T09:25:35.008Z,1.70
2018-05-09T09:26:34.972Z,1.70
2018-05-09T09:27:34.998Z,2.40
2018-05-09T09:28:34.914Z,2.10
2018-05-09T09:29:34.949Z,2.00
2018-05-09T09:30:34.864Z,1.80
2018-05-09T09:31:34.834Z,2.50
2018-05-09T09:32:34.803Z,2.30
2018-05-09T09:33:34.790Z,1.80
2018-05-09T09:34:34.810Z,1.70
2018-05-09T09:35:34.741Z,2.20
2018-05-09T09:36:34.711Z,1.50
2018-05-09T09:37:34.670Z,1.60
2018-05-09T09:38:34.645Z,1.60
2018-05-09T09:39:34.689Z,2.60
2018-05-09T09:40:34.602Z,1.50
2018-05-09T09:41:34.616Z,2.10
2018-05-09T09:42:34.537Z,2.30
2018-05-09T09:43:34.507Z,1.90
2018-05-09T09:44:34.534Z,1.40
2018-05-09T09:45:34.449Z,1.60
2018-05-09T09:46:34.434Z,1.90
2018-05-09T09:47:34.425Z,1.70
2018-05-09T09:48:34.390Z,1.50
2018-05-09T09:49:34.339Z,2.00
2018-05-09T09:50:34.476Z,2.20
2018-05-09T09:51:34.288Z,1.80
2018-05-09T09:52:34.274Z,2.10
2018-05-09T09:53:34.245Z,1.50
2018-05-09T09:54:34.235Z,1.30
2018-05-09T09:55:34.286Z,1.50
2018-05-09T09:56:34.172Z,1.90
2018-05-09T09:57:34.162Z,3.60
2018-05-09T09:58:34.116Z,2.00
2018-05-09T09:59:34.070Z,2.70
2018-05-09T10:00:34.099Z,2.20
2018-05-09T10:01:34.082Z,1.20
2018-05-09T10:02:33.997Z,1.80
2018-05-09T10:03:34.003Z,1.60
2018-05-09T10:04:33.954Z,1.90
2018-05-09T10:05:34.031Z,1.30
2018-05-09T10:06:33.877Z,1.60
2018-05-09T10:07:33.871Z,2.00
2018-05-09T10:08:33.821Z,2.00
2018-05-09T10:09:33.809Z,2.30
2018-05-09T10:10:33.812Z,1.90
2018-05-09T10:11:33.786Z,1.50
2018-05-09T10:12:33.736Z,1.80
2018-05-09T10:13:33.704Z,2.20
2018-05-09T10:14:33.655Z,1.50
2018-05-09T10:15:33.734Z,1.60
2018-05-09T10:16:33.640Z,1.00
2018-05-09T10:17:33.576Z,2.30
2018-05-09T10:18:33.561Z,1.60
2018-05-09T10:19:33.525Z,2.00
2018-05-09T10:20:33.502Z,1.70
2018-05-09T10:21:33.588Z,1.70
2018-05-09T10:22:33.437Z,1.70
2018-05-09T10:23:33.421Z,1.80
2018-05-09T10:24:33.393Z,1.20
2018-05-09T10:25:33.381Z,1.60
2018-05-09T10:26:33.360Z,1.30
2018-05-09T10:27:33.416Z,1.70
2018-05-09T10:28:33.284Z,2.20
2018-05-09T10:29:33.253Z,1.70
2018-05-09T10:30:33.222Z,1.30
2018-05-09T10:31:33.238Z,1.30
2018-05-09T10:32:33.275Z,1.60
2018-05-09T10:33:33.144Z,1.70
2018-05-09T10:34:33.113Z,1.50
2018-05-09T10:35:33.096Z,2.00
2018-05-09T10:36:33.070Z,2.00
2018-05-09T10:37:33.135Z,1.80
2018-05-09T10:38:33.009Z,1.90
2018-05-09T10:39:32.975Z,1.50
2018-05-09T10:40:32.939Z,1.00
2018-05-09T10:41:32.909Z,1.60
2018-05-09T10:42:32.943Z,1.60
2018-05-09T10:43:32.916Z,1.30
2018-05-09T10:44:32.846Z,1.40
2018-05-09T10:45:32.805Z,1.10
2018-05-09T10:46:32.788Z,2.20
2018-05-09T10:47:32.873Z,1.30
2018-05-09T10:48:32.720Z,1.40
2018-05-09T10:49:32.707Z,1.10
2018-05-09T10:50:32.661Z,1.20
2018-05-09T10:51:32.643Z,1.80
2018-05-09T10:52:32.678Z,1.50
2018-05-09T10:53:32.633Z,1.20
2018-05-09T10:54:32.616Z,1.10
2018-05-09T10:55:32.533Z,1.10
2018-05-09T10:56:32.528Z,1.30
2018-05-09T10:57:32.480Z,1.20
2018-05-09T10:58:32.477Z,1.80
2018-05-09T10:59:32.541Z,1.50
2018-05-09T11:00:32.394Z,1.10
2018-05-09T11:01:32.364Z,1.20
2018-05-09T11:02:32.339Z,2.40
2018-05-09T11:03:32.328Z,1.10
2018-05-09T11:04:32.293Z,1.30
2018-05-09T11:05:32.354Z,1.10
2018-05-09T11:06:32.227Z,1.30
2018-05-09T11:07:32.212Z,1.30
2018-05-09T11:08:32.184Z,1.30
2018-05-09T11:09:32.144Z,1.50
2018-05-09T11:10:32.231Z,1.30
2018-05-09T11:11:32.082Z,1.60
2018-05-09T11:12:32.062Z,1.00
2018-05-09T11:13:32.037Z,1.70
2018-05-09T11:14:32.007Z,1.00
2018-05-09T11:15:32.099Z,1.80
2018-05-09T11:16:31.953Z,1.50
2018-05-09T11:17:32.032Z,1.00
2018-05-09T11:18:31.942Z,1.00
2018-05-09T11:19:31.941Z,1.30
2018-05-09T11:20:31.945Z,1.10
2018-05-09T11:21:31.826Z,1.30
2018-05-09T11:22:31.788Z,1.60
2018-05-09T11:23:31.757Z,1.20
2018-05-09T11:24:31.785Z,1.10
2018-05-09T11:25:31.699Z,1.50
2018-05-09T11:26:31.780Z,1.40
2018-05-09T11:27:31.660Z,1.30
2018-05-09T11:28:31.667Z,1.00
2018-05-09T11:29:31.623Z,1.20
2018-05-09T11:30:31.571Z,1.20
2018-05-09T11:31:31.627Z,0.90
2018-05-09T11:32:31.619Z,1.40
2018-05-09T11:33:31.481Z,1.20
2018-05-09T11:34:31.452Z,1.60
2018-05-09T11:35:31.438Z,2.00
2018-05-09T11:36:31.419Z,1.20
2018-05-09T11:37:31.475Z,1.80
2018-05-09T11:38:31.471Z,1.50
2018-05-09T11:39:31.325Z,1.10
2018-05-09T11:40:31.287Z,1.70
2018-05-09T11:41:31.295Z,2.10
2018-05-09T11:42:31.281Z,1.10
2018-05-09T11:43:31.323Z,1.20
2018-05-09T11:44:31.203Z,1.00
2018-05-09T11:45:31.177Z,1.30
2018-05-09T11:46:31.125Z,1.30
2018-05-09T11:47:31.112Z,1.70
2018-05-09T11:48:31.171Z,1.60
2018-05-09T11:49:31.052Z,1.80
2018-05-09T11:50:31.026Z,0.80
2018-05-09T11:51:30.993Z,1.40
2018-05-09T11:52:30.974Z,1.60
2018-05-09T11:53:31.053Z,1.50
2018-05-09T11:54:30.918Z,1.20
2018-05-09T11:55:30.894Z,1.30
2018-05-09T11:56:30.885Z,2.20
2018-05-09T11:57:30.838Z,1.10
2018-05-09T11:58:30.822Z,1.70
2018-05-09T11:59:30.880Z,1.50
2018-05-09T12:00:30.762Z,1.60
2018-05-09T12:01:30.742Z,1.70
2018-05-09T12:02:30.714Z,1.10
2018-05-09T12:03:30.674Z,1.70
2018-05-09T12:04:30.698Z,1.40
2018-05-09T12:05:30.671Z,1.40
2018-05-09T12:06:30.688Z,1.60
2018-05-09T12:07:30.557Z,1.70
2018-05-09T12:08:30.545Z,1.50
2018-05-09T12:09:30.474Z,1.40
2018-05-09T12:10:30.594Z,2.10
2018-05-09T12:11:30.563Z,1.60
2018-05-09T12:12:30.434Z,1.40
2018-05-09T12:13:30.399Z,1.50
2018-05-09T12:14:30.407Z,2.00
2018-05-09T12:15:30.334Z,1.20
2018-05-09T12:16:30.319Z,2.10
2018-05-09T12:17:30.385Z,1.20
2018-05-09T12:18:30.254Z,1.40
2018-05-09T12:19:30.310Z,1.90
2018-05-09T12:20:30.204Z,1.90
2018-05-09T12:21:30.191Z,1.70
2018-05-09T12:22:30.251Z,1.40
2018-05-09T12:23:30.142Z,1.30
2018-05-09T12:24:30.150Z,1.10
2018-05-09T12:25:30.076Z,1.30
2018-05-09T12:26:30.036Z,1.30
2018-05-09T12:27:30.121Z,1.40
2018-05-09T12:28:29.984Z,1.40
2018-05-09T12:29:29.979Z,1.40
2018-05-09T12:30:29.952Z,1.30
2018-05-09T12:31:29.923Z,1.20
2018-05-09T12:32:30.012Z,1.40
2018-05-09T12:33:29.904Z,1.10
2018-05-09T12:34:29.864Z,1.50
2018-05-09T12:35:29.843Z,1.40
2018-05-09T12:36:29.886Z,0.80
2018-05-09T12:37:29.781Z,0.90
2018-05-09T12:38:29.851Z,1.00
2018-05-09T12:39:29.773Z,1.40
2018-05-09T12:40:29.705Z,1.40
2018-05-09T12:41:29.671Z,1.20
2018-05-09T12:42:29.727Z,1.20
2018-05-09T12:43:29.788Z,0.80
2018-05-09T12:44:29.607Z,1.30
2018-05-09T12:45:29.570Z,1.00
2018-05-09T12:46:29.557Z,0.90
2018-05-09T12:47:29.520Z,1.10
2018-05-09T12:48:29.697Z,1.40
2018-05-09T12:49:29.487Z,1.10
2018-05-09T12:50:29.467Z,1.20
2018-05-09T12:51:29.438Z,0.90
2018-05-09T12:52:29.413Z,0.90
2018-05-09T12:53:29.390Z,1.10
2018-05-09T12:54:29.508Z,1.10
2018-05-09T12:55:29.349Z,1.00
2018-05-09T12:56:29.335Z,1.10
2018-05-09T12:57:29.300Z,1.40
2018-05-09T12:58:29.272Z,1.40
2018-05-09T12:59:29.268Z,1.00
2018-05-09T13:00:29.401Z,1.10
2018-05-09T13:01:29.210Z,1.30
2018-05-09T13:02:29.191Z,1.50
2018-05-09T13:03:29.203Z,1.30
2018-05-09T13:04:29.129Z,1.40
2018-05-09T13:05:29.277Z,1.00
2018-05-09T13:06:29.108Z,1.30
2018-05-09T13:07:29.064Z,1.10
2018-05-09T13:08:29.083Z,1.30
2018-05-09T13:09:29.023Z,1.10
2018-05-09T13:10:29.133Z,1.00
2018-05-09T13:11:28.983Z,0.90
2018-05-09T13:12:28.962Z,0.90
2018-05-09T13:13:28.932Z,1.30
2018-05-09T13:14:28.980Z,1.10
2018-05-09T13:15:28.936Z,1.40
2018-05-09T13:16:28.992Z,1.30
2018-05-09T13:17:28.863Z,1.20
2018-05-09T13:18:28.816Z,1.50